Ikarus — SWEW — position and weather

sailwx.info

Track history (hours):
 
Tides and Currents Weather Stations Pressure Air Temp Water Temp Dewpoint Dewpoint Depression Visibility Wind Speed Wind Dir Waves Ship Positions

Ikarus

Last reported at 2016-Apr-29 01:33 UTC. Time now 2016-Apr-29 01:54 UTC.
Position N 43°35' E 010°18'.

Length 200 m; draft 6.5 m.

Type: Passenger vessel. MMSI: 239513000.

Date/timePositionNaut miles runAvg speedWind from/ knotsBaromVisibWave heightAir tempDewpointWater temp
2016-Apr-29 01:33N 43°35' E 010°18'0 0.0
2016-Apr-29 00:33N 43°35' E 010°18'0 0.0
2016-Apr-28 23:33N 43°35' E 010°18'0 0.0
2016-Apr-28 22:33N 43°35' E 010°18'0 0.0
2016-Apr-28 21:33N 43°35' E 010°18'0 0.0
2016-Apr-28 20:33N 43°35' E 010°18'0 0.0
2016-Apr-28 19:33N 43°35' E 010°18'0 0.0
2016-Apr-28 18:33N 43°35' E 010°18'0 0.0
2016-Apr-28 17:33N 43°35' E 010°18'0 0.0
2016-Apr-28 16:33N 43°35' E 010°18'0 0.0
2016-Apr-28 15:34N 43°35' E 010°18'6 5.8
2016-Apr-28 14:33N 43°30' E 010°13'2323.2
2016-Apr-28 13:34N 43°27' E 009°41'2424.2
2016-Apr-28 12:34N 43°18' E 009°10'19924.2
2016-Apr-28 04:21N 42°06' E 004°59'14412.2
2016-Apr-27 16:34N 41°06' E 002°04'1919.2
2016-Apr-27 15:34N 40°49' E 001°52'2019.5
2016-Apr-27 14:33N 40°31' E 001°40'2019.7
2016-Apr-27 13:32N 40°13' E 001°29'1919.9
2016-Apr-27 12:33N 39°56' E 001°17'12619.9
2016-Apr-27 06:12N 38°06' W 000°03'1623.4
2016-Apr-27 05:31N 37°52' W 000°13'2323.4
2016-Apr-27 04:33N 37°34' W 000°30'2323.3
2016-Apr-27 03:34N 37°19' W 000°52'22422.4
2016-Apr-26 17:33N 35°59' W 005°13'11 1.2
2016-Apr-26 08:33N 35°59' W 005°26'22817.5
2016-Apr-25 19:32N 37°17' W 000°59'1818.7
2016-Apr-25 18:33N 37°29' W 000°42'1616.1
2016-Apr-25 17:33N 37°41' W 000°28'1616.4
2016-Apr-25 16:33N 37°55' W 000°17'13816.7
2016-Apr-25 08:16N 39°54' E 001°13'1217.0
2016-Apr-25 07:33N 40°05' E 001°20'1716.8
2016-Apr-25 06:33N 40°19' E 001°31'1717.2
2016-Apr-25 05:33N 40°34' E 001°42'1616.3
2016-Apr-25 04:33N 40°49' E 001°52'1716.7
2016-Apr-25 03:33N 41°03' E 002°03'160 8.0
2016-Apr-24 07:28N 43°08' E 004°19'12920.7
2016-Apr-24 01:14N 43°09' E 007°16'6022.6
2016-Apr-23 22:33N 43°24' E 008°37'2221.9
2016-Apr-23 21:34N 43°27' E 009°07'2121.3
2016-Apr-23 20:33N 43°29' E 009°36'2121.4
2016-Apr-23 19:34N 43°30' E 010°05'1010.4
2016-Apr-23 18:33N 43°35' E 010°18'0 0.0
2016-Apr-23 17:30N 43°35' E 010°18'0 0.0
2016-Apr-23 16:33N 43°35' E 010°18'0 0.0
2016-Apr-23 15:33N 43°35' E 010°18'0 0.0
2016-Apr-23 14:33N 43°35' E 010°18'0 0.0
2016-Apr-23 13:33N 43°35' E 010°18'0 0.0
2016-Apr-23 12:33N 43°35' E 010°18'0 0.0
2016-Apr-23 11:33N 43°35' E 010°18'0 0.0
2016-Apr-23 10:33N 43°35' E 010°18'0 0.0
2016-Apr-23 09:33N 43°35' E 010°18'0 0.0
2016-Apr-23 08:33N 43°35' E 010°18'0 0.0
2016-Apr-23 07:33N 43°35' E 010°18'0 0.0
2016-Apr-23 06:33N 43°35' E 010°18'0 0.0
2016-Apr-23 05:33N 43°35' E 010°18'0 0.0
2016-Apr-23 04:33N 43°35' E 010°18'0 0.0
2016-Apr-23 03:33N 43°35' E 010°18'0 0.0
2016-Apr-23 02:33N 43°35' E 010°18'0 0.0
2016-Apr-23 01:33N 43°35' E 010°18'1 0.6
2016-Apr-23 00:33N 43°34' E 010°18'4 3.9
2016-Apr-22 23:28N 43°30' E 010°16'0 0.0
2016-Apr-22 22:28N 43°30' E 010°16'0 0.1
2016-Apr-22 21:31N 43°30' E 010°16'0 0.0
2016-Apr-22 20:28N 43°30' E 010°16'0 0.0
2016-Apr-22 19:31N 43°30' E 010°16'0 0.0
2016-Apr-22 18:31N 43°30' E 010°16'0 0.0
2016-Apr-22 17:28N 43°30' E 010°16'0 0.0
2016-Apr-22 16:31N 43°30' E 010°16'0 0.0
2016-Apr-22 15:31N 43°30' E 010°16'0 0.0
2016-Apr-22 14:31N 43°30' E 010°16'4 3.9
2016-Apr-22 13:33N 43°34' E 010°18'1 1.0
2016-Apr-22 12:33N 43°35' E 010°18'0 0.0
2016-Apr-22 11:33N 43°35' E 010°18'0 0.0
2016-Apr-22 10:33N 43°35' E 010°18'0 0.0
2016-Apr-22 09:33N 43°35' E 010°18'0 0.0
2016-Apr-22 08:33N 43°35' E 010°18'0 0.0
2016-Apr-22 07:33N 43°35' E 010°18'0 0.0
2016-Apr-22 06:33N 43°35' E 010°18'0 0.0
2016-Apr-22 05:33N 43°35' E 010°18'0 0.0
2016-Apr-22 04:33N 43°35' E 010°18'0 0.0
2016-Apr-22 03:33N 43°35' E 010°18'0 0.0
2016-Apr-22 02:33N 43°35' E 010°18'0 0.0
2016-Apr-22 01:33N 43°35' E 010°18'0 0.0
2016-Apr-22 00:33N 43°35' E 010°18'0 0.0
2016-Apr-21 23:33N 43°35' E 010°18'0 0.0
2016-Apr-21 22:33N 43°35' E 010°18'0 0.0
2016-Apr-21 21:33N 43°35' E 010°18'0 0.0
2016-Apr-21 20:33N 43°35' E 010°18'0 0.0
2016-Apr-21 19:33N 43°35' E 010°18'0 0.0
2016-Apr-21 18:33N 43°35' E 010°18'0 0.0
2016-Apr-21 17:33N 43°35' E 010°18'0 0.0
2016-Apr-21 16:33N 43°35' E 010°18'2 1.7
2016-Apr-21 15:33N 43°33' E 010°18'1817.6
2016-Apr-21 14:34N 43°22' E 009°59'2423.9
2016-Apr-21 13:34N 43°13' E 009°29'2423.8
2016-Apr-21 12:34N 43°05' E 008°58'2423.6
2016-Apr-21 11:33N 42°57' E 008°27'25823.4
2016-Apr-21 00:32N 41°30' E 002°60'2423.2
2016-Apr-20 23:30N 41°22' E 002°30'1515.7
2016-Apr-20 22:33N 41°20' E 002°10'2 0.5
2016-Apr-20 19:25N 41°22' E 002°11'0 0.1
2016-Apr-20 18:33N 41°22' E 002°11'1312.8
2016-Apr-20 17:33N 41°09' E 002°06'2222.3
2016-Apr-20 16:33N 40°50' E 001°52'2221.7
2016-Apr-20 15:33N 40°30' E 001°40'2222.2
2016-Apr-20 14:33N 40°10' E 001°27'15622.2
2016-Apr-20 07:31N 37°54' W 000°13'1919.8
2016-Apr-20 06:34N 37°39' W 000°26'1918.9
2016-Apr-20 05:33N 37°24' W 000°42'1919.0
2016-Apr-20 04:33N 37°12' W 000°60'21819.8
2016-Apr-19 17:33N 35°59' W 005°15'13 1.2
2016-Apr-19 07:19N 35°56' W 005°31'811.0
2016-Apr-19 06:34N 36°00' W 005°22'  
Track history (hours):
 
Tides and Currents Weather Stations Pressure Air Temp Water Temp Dewpoint Dewpoint Depression Visibility Wind Speed Wind Dir Waves Ship Positions

Ikarus

Last reported at 2016-Apr-29 01:33 UTC. Time now 2016-Apr-29 01:54 UTC.
Position N 43°35' E 010°18'.

Length 200 m; draft 6.5 m.

Type: Passenger vessel. MMSI: 239513000.

Date/timePositionNaut miles runAvg speedWind from/ knotsBaromVisibWave heightAir tempDewpointWater temp
2016-Apr-29 01:33N 43°35' E 010°18'0 0.0
2016-Apr-29 00:33N 43°35' E 010°18'0 0.0
2016-Apr-28 23:33N 43°35' E 010°18'0 0.0
2016-Apr-28 22:33N 43°35' E 010°18'0 0.0
2016-Apr-28 21:33N 43°35' E 010°18'0 0.0
2016-Apr-28 20:33N 43°35' E 010°18'0 0.0
2016-Apr-28 19:33N 43°35' E 010°18'0 0.0
2016-Apr-28 18:33N 43°35' E 010°18'0 0.0
2016-Apr-28 17:33N 43°35' E 010°18'0 0.0
2016-Apr-28 16:33N 43°35' E 010°18'0 0.0
2016-Apr-28 15:34N 43°35' E 010°18'6 5.8
2016-Apr-28 14:33N 43°30' E 010°13'2323.2
2016-Apr-28 13:34N 43°27' E 009°41'2424.2
2016-Apr-28 12:34N 43°18' E 009°10'19924.2
2016-Apr-28 04:21N 42°06' E 004°59'14412.2
2016-Apr-27 16:34N 41°06' E 002°04'1919.2
2016-Apr-27 15:34N 40°49' E 001°52'2019.5
2016-Apr-27 14:33N 40°31' E 001°40'2019.7
2016-Apr-27 13:32N 40°13' E 001°29'1919.9
2016-Apr-27 12:33N 39°56' E 001°17'12619.9
2016-Apr-27 06:12N 38°06' W 000°03'1623.4
2016-Apr-27 05:31N 37°52' W 000°13'2323.4
2016-Apr-27 04:33N 37°34' W 000°30'2323.3
2016-Apr-27 03:34N 37°19' W 000°52'22422.4
2016-Apr-26 17:33N 35°59' W 005°13'11 1.2
2016-Apr-26 08:33N 35°59' W 005°26'22817.5
2016-Apr-25 19:32N 37°17' W 000°59'1818.7
2016-Apr-25 18:33N 37°29' W 000°42'1616.1
2016-Apr-25 17:33N 37°41' W 000°28'1616.4
2016-Apr-25 16:33N 37°55' W 000°17'13816.7
2016-Apr-25 08:16N 39°54' E 001°13'1217.0
2016-Apr-25 07:33N 40°05' E 001°20'1716.8
2016-Apr-25 06:33N 40°19' E 001°31'1717.2
2016-Apr-25 05:33N 40°34' E 001°42'1616.3
2016-Apr-25 04:33N 40°49' E 001°52'1716.7
2016-Apr-25 03:33N 41°03' E 002°03'160 8.0
2016-Apr-24 07:28N 43°08' E 004°19'12920.7
2016-Apr-24 01:14N 43°09' E 007°16'6022.6
2016-Apr-23 22:33N 43°24' E 008°37'2221.9
2016-Apr-23 21:34N 43°27' E 009°07'2121.3
2016-Apr-23 20:33N 43°29' E 009°36'2121.4
2016-Apr-23 19:34N 43°30' E 010°05'1010.4
2016-Apr-23 18:33N 43°35' E 010°18'0 0.0
2016-Apr-23 17:30N 43°35' E 010°18'0 0.0
2016-Apr-23 16:33N 43°35' E 010°18'0 0.0
2016-Apr-23 15:33N 43°35' E 010°18'0 0.0
2016-Apr-23 14:33N 43°35' E 010°18'0 0.0
2016-Apr-23 13:33N 43°35' E 010°18'0 0.0
2016-Apr-23 12:33N 43°35' E 010°18'0 0.0
2016-Apr-23 11:33N 43°35' E 010°18'0 0.0
2016-Apr-23 10:33N 43°35' E 010°18'0 0.0
2016-Apr-23 09:33N 43°35' E 010°18'0 0.0
2016-Apr-23 08:33N 43°35' E 010°18'0 0.0
2016-Apr-23 07:33N 43°35' E 010°18'0 0.0
2016-Apr-23 06:33N 43°35' E 010°18'0 0.0
2016-Apr-23 05:33N 43°35' E 010°18'0 0.0
2016-Apr-23 04:33N 43°35' E 010°18'0 0.0
2016-Apr-23 03:33N 43°35' E 010°18'0 0.0
2016-Apr-23 02:33N 43°35' E 010°18'0 0.0
2016-Apr-23 01:33N 43°35' E 010°18'1 0.6
2016-Apr-23 00:33N 43°34' E 010°18'4 3.9
2016-Apr-22 23:28N 43°30' E 010°16'0 0.0
2016-Apr-22 22:28N 43°30' E 010°16'0 0.1
2016-Apr-22 21:31N 43°30' E 010°16'0 0.0
2016-Apr-22 20:28N 43°30' E 010°16'0 0.0
2016-Apr-22 19:31N 43°30' E 010°16'0 0.0
2016-Apr-22 18:31N 43°30' E 010°16'0 0.0
2016-Apr-22 17:28N 43°30' E 010°16'0 0.0
2016-Apr-22 16:31N 43°30' E 010°16'0 0.0
2016-Apr-22 15:31N 43°30' E 010°16'0 0.0
2016-Apr-22 14:31N 43°30' E 010°16'4 3.9
2016-Apr-22 13:33N 43°34' E 010°18'1 1.0
2016-Apr-22 12:33N 43°35' E 010°18'0 0.0
2016-Apr-22 11:33N 43°35' E 010°18'0 0.0
2016-Apr-22 10:33N 43°35' E 010°18'0 0.0
2016-Apr-22 09:33N 43°35' E 010°18'0 0.0
2016-Apr-22 08:33N 43°35' E 010°18'0 0.0
2016-Apr-22 07:33N 43°35' E 010°18'0 0.0
2016-Apr-22 06:33N 43°35' E 010°18'0 0.0
2016-Apr-22 05:33N 43°35' E 010°18'0 0.0
2016-Apr-22 04:33N 43°35' E 010°18'0 0.0
2016-Apr-22 03:33N 43°35' E 010°18'0 0.0
2016-Apr-22 02:33N 43°35' E 010°18'0 0.0
2016-Apr-22 01:33N 43°35' E 010°18'0 0.0
2016-Apr-22 00:33N 43°35' E 010°18'0 0.0
2016-Apr-21 23:33N 43°35' E 010°18'0 0.0
2016-Apr-21 22:33N 43°35' E 010°18'0 0.0
2016-Apr-21 21:33N 43°35' E 010°18'0 0.0
2016-Apr-21 20:33N 43°35' E 010°18'0 0.0
2016-Apr-21 19:33N 43°35' E 010°18'0 0.0
2016-Apr-21 18:33N 43°35' E 010°18'0 0.0
2016-Apr-21 17:33N 43°35' E 010°18'0 0.0
2016-Apr-21 16:33N 43°35' E 010°18'2 1.7
2016-Apr-21 15:33N 43°33' E 010°18'1817.6
2016-Apr-21 14:34N 43°22' E 009°59'2423.9
2016-Apr-21 13:34N 43°13' E 009°29'2423.8
2016-Apr-21 12:34N 43°05' E 008°58'2423.6
2016-Apr-21 11:33N 42°57' E 008°27'25823.4
2016-Apr-21 00:32N 41°30' E 002°60'2423.2
2016-Apr-20 23:30N 41°22' E 002°30'1515.7
2016-Apr-20 22:33N 41°20' E 002°10'2 0.5
2016-Apr-20 19:25N 41°22' E 002°11'0 0.1
2016-Apr-20 18:33N 41°22' E 002°11'1312.8
2016-Apr-20 17:33N 41°09' E 002°06'2222.3
2016-Apr-20 16:33N 40°50' E 001°52'2221.7
2016-Apr-20 15:33N 40°30' E 001°40'2222.2
2016-Apr-20 14:33N 40°10' E 001°27'15622.2
2016-Apr-20 07:31N 37°54' W 000°13'1919.8
2016-Apr-20 06:34N 37°39' W 000°26'1918.9
2016-Apr-20 05:33N 37°24' W 000°42'1919.0
2016-Apr-20 04:33N 37°12' W 000°60'21819.8
2016-Apr-19 17:33N 35°59' W 005°15'13 1.2
2016-Apr-19 07:19N 35°56' W 005°31'811.0
2016-Apr-19 06:34N 36°00' W 005°22'  

Dump ship's entire track history